createdAt,value
2023-01-28T00:00:00.746Z,49.84
2023-01-28T00:02:32.050Z,50.04
2023-01-28T00:05:00.581Z,50.02
2023-01-28T00:07:29.302Z,49.78
2023-01-28T00:09:57.968Z,49.77
2023-01-28T00:12:27.437Z,49.87
2023-01-28T00:14:55.819Z,49.54
2023-01-28T00:17:24.738Z,49.85
2023-01-28T00:19:53.708Z,50.13
2023-01-28T00:22:22.403Z,50.16
2023-01-28T00:24:50.955Z,50.19
2023-01-28T00:27:19.359Z,49.99
2023-01-28T00:29:48.759Z,49.81
2023-01-28T00:32:17.166Z,49.70
2023-01-28T00:34:45.792Z,49.91
2023-01-28T00:37:15.052Z,50.18
2023-01-28T00:39:44.235Z,50.25
2023-01-28T00:42:12.869Z,50.25
2023-01-28T00:44:41.441Z,50.36
2023-01-28T00:47:10.101Z,50.46
2023-01-28T00:49:38.582Z,50.24
2023-01-28T00:52:07.081Z,50.08
2023-01-28T00:54:36.565Z,50.31
2023-01-28T00:57:05.023Z,50.39
2023-01-28T00:59:37.169Z,50.50
2023-01-28T01:02:12.879Z,50.37
2023-01-28T01:04:41.764Z,50.61
2023-01-28T01:07:10.339Z,50.51
2023-01-28T01:09:39.236Z,50.17
2023-01-28T01:12:08.547Z,49.96
2023-01-28T01:14:37.755Z,50.06
2023-01-28T01:17:06.687Z,49.89
2023-01-28T01:19:35.039Z,49.69
2023-01-28T01:22:04.016Z,49.75
2023-01-28T01:24:34.331Z,49.82
2023-01-28T01:27:03.180Z,49.78
2023-01-28T01:29:34.028Z,49.95
2023-01-28T01:32:03.564Z,50.07
2023-01-28T01:34:32.501Z,50.29
2023-01-28T01:37:00.983Z,50.78
2023-01-28T01:39:29.740Z,50.55
2023-01-28T01:41:58.183Z,50.87
2023-01-28T01:44:58.299Z,50.90
2023-01-28T01:47:39.151Z,51.40
2023-01-28T01:50:12.849Z,52.33
2023-01-28T01:52:41.643Z,52.69
2023-01-28T01:55:14.041Z,51.85
2023-01-28T01:57:42.647Z,51.72
2023-01-28T02:00:13.065Z,51.24
2023-01-28T02:02:47.159Z,51.24
2023-01-28T02:05:19.337Z,50.95
2023-01-28T02:07:49.016Z,50.62
2023-01-28T02:10:18.897Z,50.70
2023-01-28T02:12:53.983Z,50.65
2023-01-28T02:15:27.125Z,50.92
2023-01-28T02:17:56.455Z,51.05
2023-01-28T02:20:27.203Z,50.94
2023-01-28T02:22:59.146Z,51.12
2023-01-28T02:25:33.999Z,50.98
2023-01-28T02:28:25.201Z,50.68
2023-01-28T02:31:16.868Z,50.44
2023-01-28T02:34:10.453Z,50.35
2023-01-28T02:37:03.465Z,50.66
2023-01-28T02:39:40.763Z,50.44
2023-01-28T02:42:16.593Z,50.95
2023-01-28T02:44:45.095Z,50.99
2023-01-28T02:47:34.788Z,51.38
2023-01-28T02:50:09.726Z,51.07
2023-01-28T02:53:40.011Z,51.21
2023-01-28T02:56:44.541Z,52.05
2023-01-28T02:59:31.345Z,52.01
2023-01-28T03:02:30.707Z,51.41
2023-01-28T03:04:59.238Z,51.12
2023-01-28T03:07:29.627Z,51.20
2023-01-28T03:09:59.491Z,51.26
2023-01-28T03:12:46.759Z,51.19
2023-01-28T03:15:40.373Z,51.21
2023-01-28T03:18:36.890Z,51.41
2023-01-28T03:21:30.970Z,51.46
2023-01-28T03:24:34.611Z,51.33
2023-01-28T03:27:28.861Z,51.32
2023-01-28T03:30:32.846Z,51.37
2023-01-28T03:33:23.503Z,51.29
2023-01-28T03:36:10.875Z,51.36
2023-01-28T03:38:48.905Z,51.19
2023-01-28T03:41:25.809Z,51.21
2023-01-28T03:43:56.510Z,51.01
2023-01-28T03:46:25.395Z,51.15
2023-01-28T03:48:54.678Z,51.00
2023-01-28T03:51:23.512Z,50.93
2023-01-28T03:53:52.214Z,51.07
2023-01-28T03:56:27.146Z,51.02
2023-01-28T03:58:57.472Z,50.97
2023-01-28T04:01:26.014Z,50.95
2023-01-28T04:03:55.136Z,51.09
2023-01-28T04:06:31.253Z,50.92
2023-01-28T04:09:18.591Z,51.29
2023-01-28T04:12:07.753Z,51.91
2023-01-28T04:14:42.899Z,51.70
2023-01-28T04:17:15.414Z,51.86
2023-01-28T04:19:44.931Z,51.71
2023-01-28T04:22:13.956Z,51.37
2023-01-28T04:24:48.003Z,51.14
2023-01-28T04:27:17.503Z,51.04
2023-01-28T04:29:48.751Z,50.96
2023-01-28T04:32:40.901Z,51.34
2023-01-28T04:35:29.190Z,51.25
2023-01-28T04:38:04.343Z,51.51
2023-01-28T04:40:50.560Z,51.56
2023-01-28T04:43:27.740Z,51.73
2023-01-28T04:46:14.067Z,51.62
2023-01-28T04:48:49.549Z,51.68
2023-01-28T04:51:33.797Z,51.30
2023-01-28T04:54:28.492Z,51.33
2023-01-28T04:57:00.756Z,51.49
2023-01-28T04:59:30.062Z,51.62
2023-01-28T05:01:58.771Z,51.85
2023-01-28T05:04:27.970Z,52.12
2023-01-28T05:06:56.592Z,52.13
2023-01-28T05:09:29.111Z,52.19
2023-01-28T05:11:57.959Z,52.38
2023-01-28T05:14:26.385Z,52.47
2023-01-28T05:17:09.818Z,52.30
2023-01-28T05:19:39.145Z,52.41
2023-01-28T05:22:12.463Z,52.27
2023-01-28T05:24:44.657Z,51.93
2023-01-28T05:27:13.432Z,51.64
2023-01-28T05:29:41.894Z,51.98
2023-01-28T05:32:10.880Z,52.13
2023-01-28T05:34:39.464Z,52.24
2023-01-28T05:37:12.386Z,52.30
2023-01-28T05:39:40.937Z,52.20
2023-01-28T05:42:09.832Z,52.35
2023-01-28T05:44:43.623Z,52.06
2023-01-28T05:47:18.036Z,52.13
2023-01-28T05:50:10.315Z,51.78
2023-01-28T05:52:45.106Z,51.83
2023-01-28T05:55:22.312Z,51.80
2023-01-28T05:57:52.865Z,51.46
2023-01-28T06:00:25.177Z,51.20
2023-01-28T06:02:53.776Z,51.08
2023-01-28T06:05:23.468Z,51.12
2023-01-28T06:07:52.530Z,51.19
2023-01-28T06:10:21.940Z,51.19
2023-01-28T06:12:50.995Z,50.84
2023-01-28T06:15:39.390Z,50.33
2023-01-28T06:18:25.412Z,50.26
2023-01-28T06:20:54.760Z,50.14
2023-01-28T06:23:23.475Z,49.80
2023-01-28T06:25:56.617Z,49.60
2023-01-28T06:28:26.408Z,49.63
2023-01-28T06:30:55.082Z,49.45
2023-01-28T06:33:26.341Z,49.58
2023-01-28T06:35:59.802Z,49.86
2023-01-28T06:38:28.485Z,49.77
2023-01-28T06:40:58.437Z,49.58
2023-01-28T06:43:30.892Z,49.30
2023-01-28T06:45:59.612Z,49.10
2023-01-28T06:48:28.331Z,49.46
2023-01-28T06:51:01.042Z,49.63
2023-01-28T06:53:33.253Z,49.34
2023-01-28T06:56:01.710Z,48.50
2023-01-28T06:58:30.460Z,48.00
2023-01-28T07:00:59.315Z,47.14
2023-01-28T07:03:27.935Z,46.57
2023-01-28T07:05:56.376Z,45.75
2023-01-28T07:08:24.820Z,45.06
2023-01-28T07:10:53.478Z,45.43
2023-01-28T07:13:22.311Z,44.86
2023-01-28T07:15:50.932Z,44.36
2023-01-28T07:18:19.331Z,43.83
2023-01-28T07:20:48.006Z,43.51
2023-01-28T07:23:17.836Z,43.24
2023-01-28T07:25:46.219Z,43.39
2023-01-28T07:28:14.520Z,43.88
2023-01-28T07:30:43.032Z,44.80
2023-01-28T07:33:11.649Z,45.17
2023-01-28T07:35:40.057Z,46.49
2023-01-28T07:38:08.488Z,46.82
2023-01-28T07:40:37.138Z,46.74
2023-01-28T07:43:07.409Z,47.92
2023-01-28T07:45:40.298Z,48.29
2023-01-28T07:48:10.744Z,48.78
2023-01-28T07:50:40.410Z,48.70
2023-01-28T07:53:11.517Z,49.34
2023-01-28T07:55:40.744Z,49.90
2023-01-28T07:58:11.055Z,50.89
2023-01-28T08:00:39.806Z,50.94
2023-01-28T08:03:16.100Z,50.86
2023-01-28T08:05:48.632Z,50.75
2023-01-28T08:08:17.698Z,50.51
2023-01-28T08:10:46.093Z,50.75
2023-01-28T08:13:15.899Z,51.89
2023-01-28T08:15:44.824Z,52.26
2023-01-28T08:18:14.236Z,52.35
2023-01-28T08:20:47.693Z,51.84
2023-01-28T08:23:18.952Z,51.69
2023-01-28T08:25:48.647Z,51.85
2023-01-28T08:28:18.608Z,51.68
2023-01-28T08:30:47.281Z,51.87
2023-01-28T08:33:16.702Z,51.48
2023-01-28T08:35:47.264Z,51.82
2023-01-28T08:38:17.977Z,51.78
2023-01-28T08:40:54.235Z,51.99
2023-01-28T08:43:22.716Z,51.30
2023-01-28T08:45:51.666Z,51.54
2023-01-28T08:48:20.423Z,51.98
2023-01-28T08:50:49.041Z,51.97
2023-01-28T08:53:19.219Z,51.38
2023-01-28T08:55:47.698Z,52.11
2023-01-28T08:58:17.473Z,51.61
2023-01-28T09:00:46.081Z,51.25
2023-01-28T09:03:14.478Z,51.40
2023-01-28T09:05:44.053Z,51.29
2023-01-28T09:08:14.678Z,51.30
2023-01-28T09:10:43.471Z,51.39
2023-01-28T09:13:14.351Z,50.92
2023-01-28T09:15:43.351Z,51.23
2023-01-28T09:18:11.891Z,51.57
2023-01-28T09:20:40.502Z,51.98
2023-01-28T09:23:08.997Z,51.62
2023-01-28T09:25:37.802Z,50.87
2023-01-28T09:28:06.618Z,50.71
2023-01-28T09:30:37.380Z,50.72
2023-01-28T09:33:06.500Z,50.75
2023-01-28T09:35:35.105Z,50.49
2023-01-28T09:38:03.733Z,50.61
2023-01-28T09:40:41.210Z,50.41
2023-01-28T09:43:20.144Z,50.68
2023-01-28T09:45:49.819Z,50.51
2023-01-28T09:48:32.939Z,50.61
2023-01-28T09:51:02.663Z,50.43
2023-01-28T09:53:32.625Z,50.51
2023-01-28T09:56:02.316Z,50.18
2023-01-28T09:58:31.936Z,49.77
2023-01-28T10:01:14.619Z,49.57
2023-01-28T10:03:46.034Z,49.62
2023-01-28T10:06:29.161Z,49.77
2023-01-28T10:08:57.511Z,49.62
2023-01-28T10:11:39.736Z,49.78
2023-01-28T10:14:18.388Z,49.84
2023-01-28T10:16:50.610Z,49.79
2023-01-28T10:19:28.859Z,49.98
2023-01-28T10:22:01.886Z,50.11
2023-01-28T10:24:34.220Z,49.94
2023-01-28T10:27:22.931Z,50.40
2023-01-28T10:29:51.510Z,50.54
2023-01-28T10:32:37.280Z,50.50
2023-01-28T10:35:06.104Z,50.37
2023-01-28T10:37:35.906Z,51.27
2023-01-28T10:40:04.830Z,51.15
2023-01-28T10:42:35.689Z,51.23
2023-01-28T10:45:10.656Z,50.75
2023-01-28T10:47:43.709Z,50.17
2023-01-28T10:50:28.395Z,50.62
2023-01-28T10:52:57.861Z,51.18
2023-01-28T10:55:30.415Z,51.22
2023-01-28T10:57:58.919Z,50.86
2023-01-28T11:00:35.981Z,51.09
2023-01-28T11:03:04.541Z,51.07
2023-01-28T11:05:32.983Z,51.25
2023-01-28T11:08:11.377Z,51.04
2023-01-28T11:10:41.240Z,50.16
2023-01-28T11:13:21.299Z,50.15
2023-01-28T11:16:02.589Z,50.96
2023-01-28T11:18:55.528Z,50.37
2023-01-28T11:21:28.216Z,50.49
2023-01-28T11:24:02.365Z,50.48
2023-01-28T11:26:43.445Z,50.99
2023-01-28T11:29:33.725Z,50.27
2023-01-28T11:32:02.594Z,49.36
2023-01-28T11:34:53.365Z,49.44
2023-01-28T11:37:24.906Z,50.33
2023-01-28T11:40:23.858Z,49.43
2023-01-28T11:42:52.911Z,49.27
2023-01-28T11:45:31.432Z,50.25
2023-01-28T11:48:23.246Z,49.63
2023-01-28T11:50:58.578Z,49.28
2023-01-28T11:53:32.366Z,49.41
2023-01-28T11:56:24.449Z,49.62
2023-01-28T11:59:06.439Z,48.88
2023-01-28T12:01:38.650Z,48.94
2023-01-28T12:04:23.972Z,48.87
2023-01-28T12:06:59.943Z,48.72
2023-01-28T12:09:44.253Z,49.18
2023-01-28T12:12:27.552Z,48.89
2023-01-28T12:15:04.757Z,48.54
2023-01-28T12:17:45.960Z,48.21
2023-01-28T12:20:17.591Z,48.38
2023-01-28T12:22:58.161Z,49.06
2023-01-28T12:26:06.438Z,48.33
2023-01-28T12:28:58.675Z,48.96
2023-01-28T12:31:31.820Z,48.76
2023-01-28T12:34:38.884Z,48.93
2023-01-28T12:37:16.794Z,48.84
2023-01-28T12:40:23.121Z,49.06
2023-01-28T12:43:03.516Z,48.64
2023-01-28T12:45:42.954Z,49.21
2023-01-28T12:48:45.707Z,48.67
2023-01-28T12:51:25.520Z,49.17
2023-01-28T12:53:57.892Z,49.16
2023-01-28T12:56:33.696Z,49.03
2023-01-28T12:59:27.794Z,48.73
2023-01-28T13:02:11.974Z,48.89
2023-01-28T13:04:43.076Z,48.97
2023-01-28T13:07:44.231Z,49.17
2023-01-28T13:10:30.364Z,49.52
2023-01-28T13:13:37.920Z,48.80
2023-01-28T13:20:57.191Z,48.64
2023-01-28T13:23:51.509Z,48.85
2023-01-28T13:26:24.767Z,48.76
2023-01-28T13:28:54.369Z,48.60
2023-01-28T13:31:24.062Z,48.44
2023-01-28T13:33:54.969Z,48.73
2023-01-28T13:36:34.809Z,48.63
2023-01-28T13:39:24.302Z,48.64
2023-01-28T13:41:54.471Z,49.19
2023-01-28T13:44:26.020Z,48.84
2023-01-28T13:46:56.846Z,48.61
2023-01-28T13:49:46.199Z,48.71
2023-01-28T13:52:28.706Z,48.76
2023-01-28T13:55:02.073Z,48.94
2023-01-28T13:57:33.771Z,49.46
2023-01-28T14:00:08.907Z,49.03
2023-01-28T14:03:00.243Z,48.87
2023-01-28T14:05:56.915Z,48.46
2023-01-28T14:08:34.840Z,48.64
2023-01-28T14:11:31.504Z,48.21
2023-01-28T14:14:28.619Z,48.18
2023-01-28T14:17:37.236Z,48.16
2023-01-28T14:20:14.498Z,48.59
2023-01-28T14:22:43.266Z,48.84
2023-01-28T14:25:14.150Z,48.84
2023-01-28T14:27:45.276Z,48.83
2023-01-28T14:30:19.971Z,48.88
2023-01-28T14:32:50.486Z,48.31
2023-01-28T14:35:24.564Z,49.11
2023-01-28T14:37:54.980Z,49.23
2023-01-28T14:40:24.217Z,49.10
2023-01-28T14:42:53.940Z,48.83
2023-01-28T14:46:05.017Z,48.48
2023-01-28T14:48:46.198Z,48.77
2023-01-28T14:51:33.156Z,47.91
2023-01-28T14:54:08.097Z,47.85
2023-01-28T14:56:49.473Z,48.00
2023-01-28T14:59:21.538Z,47.90
2023-01-28T15:01:54.612Z,47.62
2023-01-28T15:04:31.735Z,47.22
2023-01-28T15:07:26.548Z,47.29
2023-01-28T15:10:06.694Z,47.78
2023-01-28T15:12:39.828Z,48.05
2023-01-28T15:15:50.060Z,48.51
2023-01-28T15:18:22.844Z,49.18
2023-01-28T15:20:52.800Z,48.89
2023-01-28T15:23:29.710Z,48.52
2023-01-28T15:25:59.475Z,48.40
2023-01-28T15:28:31.966Z,48.06
2023-01-28T15:31:00.586Z,48.08
2023-01-28T15:33:32.318Z,48.45
2023-01-28T15:36:00.889Z,48.33
2023-01-28T15:38:29.472Z,48.35
2023-01-28T15:41:01.937Z,48.36
2023-01-28T15:43:37.376Z,48.16
2023-01-28T15:46:11.875Z,48.15
2023-01-28T15:48:49.963Z,47.77
2023-01-28T15:51:29.361Z,48.13
2023-01-28T15:54:03.572Z,47.91
2023-01-28T15:56:32.714Z,47.85
2023-01-28T15:59:23.580Z,48.07
2023-01-28T16:02:20.266Z,48.11
2023-01-28T16:04:59.589Z,47.98
2023-01-28T16:07:32.993Z,47.94
2023-01-28T16:10:02.832Z,47.97
2023-01-28T16:12:32.371Z,47.94
2023-01-28T16:15:01.773Z,48.10
2023-01-28T16:17:40.552Z,48.26
2023-01-28T16:20:17.767Z,48.03
2023-01-28T16:22:46.427Z,48.26
2023-01-28T16:25:24.311Z,48.51
2023-01-28T16:27:53.159Z,48.37
2023-01-28T16:30:21.666Z,48.09
2023-01-28T16:32:51.890Z,48.51
2023-01-28T16:35:22.601Z,48.62
2023-01-28T16:37:51.834Z,48.58
2023-01-28T16:40:22.795Z,48.76
2023-01-28T16:42:56.235Z,48.55
2023-01-28T16:45:25.315Z,48.78
2023-01-28T16:47:53.806Z,48.46
2023-01-28T16:50:23.180Z,48.50
2023-01-28T16:52:52.198Z,48.77
2023-01-28T16:55:21.692Z,48.67
2023-01-28T16:57:53.224Z,48.48
2023-01-28T17:00:26.395Z,48.33
2023-01-28T17:02:55.255Z,48.52
2023-01-28T17:05:27.049Z,48.87
2023-01-28T17:08:04.362Z,48.97
2023-01-28T17:10:33.229Z,48.64
2023-01-28T17:13:01.821Z,48.52
2023-01-28T17:15:30.859Z,48.33
2023-01-28T17:17:59.745Z,48.26
2023-01-28T17:20:32.937Z,48.38
2023-01-28T17:23:01.935Z,48.23
2023-01-28T17:25:30.467Z,47.96
2023-01-28T17:27:59.067Z,47.49
2023-01-28T17:30:27.577Z,47.72
2023-01-28T17:32:56.462Z,47.76
2023-01-28T17:35:25.043Z,48.05
2023-01-28T17:37:56.368Z,47.95
2023-01-28T17:40:25.159Z,47.69
2023-01-28T17:42:55.614Z,47.64
2023-01-28T17:45:31.471Z,48.04
2023-01-28T17:48:01.913Z,48.25
2023-01-28T17:50:30.838Z,47.97
2023-01-28T17:52:59.438Z,47.28
2023-01-28T17:55:27.962Z,47.08
2023-01-28T17:57:56.359Z,47.07
2023-01-28T18:00:27.163Z,47.29
2023-01-28T18:02:55.663Z,47.51
2023-01-28T18:05:24.127Z,47.46
2023-01-28T18:07:52.889Z,47.41
2023-01-28T18:10:21.784Z,47.70
2023-01-28T18:12:51.544Z,47.76
2023-01-28T18:15:20.170Z,47.87
2023-01-28T18:17:53.368Z,47.85
2023-01-28T18:20:22.219Z,47.64
2023-01-28T18:22:50.653Z,47.96
2023-01-28T18:25:21.103Z,47.92
2023-01-28T18:27:49.906Z,48.28
2023-01-28T18:30:18.674Z,47.87
2023-01-28T18:32:47.559Z,47.57
2023-01-28T18:35:27.659Z,46.78
2023-01-28T18:37:56.042Z,46.70
2023-01-28T18:40:25.158Z,46.96
2023-01-28T18:42:53.544Z,46.87
2023-01-28T18:45:22.536Z,47.28
2023-01-28T18:47:51.568Z,47.50
2023-01-28T18:50:20.235Z,47.48
2023-01-28T18:52:49.339Z,47.33
2023-01-28T18:55:19.112Z,47.08
2023-01-28T18:57:48.585Z,47.34
2023-01-28T19:00:19.230Z,46.62
2023-01-28T19:02:47.548Z,46.54
2023-01-28T19:05:17.766Z,46.56
2023-01-28T19:07:47.057Z,46.51
2023-01-28T19:10:16.967Z,46.54
2023-01-28T19:12:46.541Z,46.76
2023-01-28T19:15:15.858Z,46.89
2023-01-28T19:17:45.954Z,47.31
2023-01-28T19:20:14.373Z,48.06
2023-01-28T19:22:42.825Z,47.63
2023-01-28T19:25:11.609Z,47.88
2023-01-28T19:27:40.218Z,48.07
2023-01-28T19:30:09.450Z,47.69
2023-01-28T19:32:38.378Z,47.61
2023-01-28T19:35:07.570Z,47.31
2023-01-28T19:37:36.422Z,47.15
2023-01-28T19:40:06.286Z,46.84
2023-01-28T19:42:35.292Z,46.58
2023-01-28T19:45:23.594Z,46.85
2023-01-28T19:47:52.591Z,46.91
2023-01-28T19:50:21.112Z,46.84
2023-01-28T19:52:49.798Z,46.78
2023-01-28T19:55:18.583Z,46.96
2023-01-28T19:57:47.413Z,47.24
2023-01-28T20:00:16.210Z,46.94
2023-01-28T20:02:44.601Z,47.38
2023-01-28T20:05:16.417Z,47.00
2023-01-28T20:07:45.329Z,46.47
2023-01-28T20:10:14.183Z,46.49
2023-01-28T20:12:42.837Z,46.60
2023-01-28T20:15:11.780Z,47.01
2023-01-28T20:17:40.423Z,47.22
2023-01-28T20:20:12.061Z,46.70
2023-01-28T20:22:41.855Z,46.54
2023-01-28T20:25:10.471Z,46.62
2023-01-28T20:27:39.319Z,47.00
2023-01-28T20:30:09.072Z,46.85
2023-01-28T20:32:37.913Z,46.58
2023-01-28T20:35:06.721Z,46.65
2023-01-28T20:37:35.648Z,47.46
2023-01-28T20:40:04.577Z,47.05
2023-01-28T20:42:33.048Z,46.63
2023-01-28T20:45:01.504Z,46.36
2023-01-28T20:47:31.021Z,46.37
2023-01-28T20:49:59.846Z,46.59
2023-01-28T20:52:28.231Z,47.03
2023-01-28T20:54:56.849Z,47.48
2023-01-28T20:57:25.785Z,47.71
2023-01-28T20:59:54.352Z,47.60
2023-01-28T21:02:23.163Z,47.80
2023-01-28T21:04:51.704Z,47.53
2023-01-28T21:07:22.981Z,47.36
2023-01-28T21:09:51.658Z,47.16
2023-01-28T21:12:20.091Z,47.44
2023-01-28T21:14:49.526Z,47.44
2023-01-28T21:17:21.243Z,47.26
2023-01-28T21:19:49.675Z,47.00
2023-01-28T21:22:18.192Z,46.89
2023-01-28T21:24:51.329Z,46.82
2023-01-28T21:27:25.927Z,46.79
2023-01-28T21:29:55.059Z,46.95
2023-01-28T21:32:26.624Z,47.02
2023-01-28T21:34:56.246Z,47.32
2023-01-28T21:37:25.172Z,46.99
2023-01-28T21:39:53.599Z,46.90
2023-01-28T21:42:22.584Z,47.03
2023-01-28T21:44:51.111Z,47.14
2023-01-28T21:47:19.507Z,47.30
2023-01-28T21:49:48.066Z,47.17
2023-01-28T21:52:16.958Z,47.06
2023-01-28T21:54:45.863Z,47.03
2023-01-28T21:57:15.154Z,47.29
2023-01-28T21:59:43.841Z,47.79
2023-01-28T22:02:13.878Z,47.73
2023-01-28T22:04:46.324Z,47.71
2023-01-28T22:07:17.458Z,47.83
2023-01-28T22:09:46.458Z,47.87
2023-01-28T22:12:16.769Z,48.59
2023-01-28T22:14:46.942Z,48.35
2023-01-28T22:17:18.746Z,48.68
2023-01-28T22:19:48.437Z,49.13
2023-01-28T22:22:17.116Z,49.00
2023-01-28T22:24:45.547Z,48.40
2023-01-28T22:27:14.375Z,48.10
2023-01-28T22:29:42.750Z,48.19
2023-01-28T22:32:11.429Z,48.31
2023-01-28T22:34:39.898Z,48.85
2023-01-28T22:37:08.343Z,48.95
2023-01-28T22:39:36.768Z,48.57
2023-01-28T22:42:05.516Z,48.94
2023-01-28T22:44:34.283Z,48.99
2023-01-28T22:47:03.514Z,49.09
2023-01-28T22:49:31.943Z,49.12
2023-01-28T22:52:00.654Z,48.94
2023-01-28T22:54:29.162Z,48.71
2023-01-28T22:56:57.635Z,48.57
2023-01-28T22:59:26.526Z,48.45
2023-01-28T23:01:55.104Z,48.98
2023-01-28T23:04:23.343Z,49.38
2023-01-28T23:06:52.142Z,48.92
2023-01-28T23:09:20.459Z,48.77
2023-01-28T23:11:49.315Z,48.95
2023-01-28T23:14:36.164Z,48.90
2023-01-28T23:17:23.287Z,48.39
2023-01-28T23:20:11.477Z,48.58
2023-01-28T23:22:58.621Z,48.63
2023-01-28T23:25:27.148Z,48.00
2023-01-28T23:27:55.587Z,48.16
2023-01-28T23:30:25.499Z,48.27
2023-01-28T23:32:56.784Z,48.12
2023-01-28T23:35:27.729Z,48.55
2023-01-28T23:37:57.095Z,48.64
2023-01-28T23:40:27.427Z,49.18
2023-01-28T23:42:56.455Z,49.26
2023-01-28T23:45:25.367Z,48.68
2023-01-28T23:47:54.600Z,48.71
2023-01-28T23:50:23.204Z,48.99
2023-01-28T23:52:54.182Z,49.56
2023-01-28T23:55:22.746Z,49.01
2023-01-28T23:57:51.538Z,49.13
